createdAt,value
2023-03-31T00:01:04.761Z,5.78
2023-03-31T00:03:39.151Z,5.07
2023-03-31T00:06:10.525Z,3.58
2023-03-31T00:08:40.607Z,4.20
2023-03-31T00:11:09.581Z,5.03
2023-03-31T00:13:38.294Z,4.65
2023-03-31T00:16:10.201Z,4.53
2023-03-31T00:18:47.760Z,4.45
2023-03-31T00:21:25.918Z,5.45
2023-03-31T00:23:56.126Z,7.45
2023-03-31T00:26:25.235Z,4.78
2023-03-31T00:28:54.027Z,4.43
2023-03-31T05:28:40.042Z,5.30
2023-03-31T05:31:27.534Z,4.63
2023-03-31T05:34:14.890Z,8.85
2023-03-31T05:37:01.761Z,5.22
2023-03-31T05:39:48.983Z,7.40
2023-03-31T05:42:36.341Z,3.58
2023-03-31T05:45:09.248Z,4.15
2023-03-31T05:47:38.038Z,6.68
2023-03-31T05:50:09.271Z,2.67
2023-03-31T05:52:38.070Z,3.65
2023-03-31T05:55:07.141Z,6.05
2023-03-31T05:57:35.709Z,3.05
2023-03-31T06:00:09.470Z,1.77
2023-03-31T06:02:38.824Z,4.22
2023-03-31T06:05:07.849Z,3.03
2023-03-31T06:07:36.451Z,3.60
2023-03-31T06:10:07.636Z,4.35
2023-03-31T06:12:36.697Z,7.22
2023-03-31T06:15:07.561Z,4.38
2023-03-31T06:17:42.342Z,4.03
2023-03-31T06:20:24.505Z,4.63
2023-03-31T06:22:56.378Z,5.43
2023-03-31T06:25:24.997Z,7.43
2023-03-31T06:27:53.879Z,8.70
2023-03-31T06:30:24.045Z,5.03
2023-03-31T06:32:53.585Z,4.57
2023-03-31T06:35:22.202Z,5.97
2023-03-31T06:37:51.296Z,5.78
2023-03-31T06:40:19.919Z,4.47
2023-03-31T06:42:48.316Z,5.15
2023-03-31T06:45:18.396Z,6.50
2023-03-31T06:47:48.246Z,5.10
2023-03-31T06:50:17.220Z,3.45
2023-03-31T06:52:45.937Z,9.38
2023-03-31T06:55:15.674Z,4.97
2023-03-31T06:57:44.098Z,4.70
2023-03-31T07:00:13.745Z,4.70
2023-03-31T07:02:43.487Z,6.32
2023-03-31T07:05:13.345Z,4.45
2023-03-31T07:07:43.327Z,5.00
2023-03-31T07:10:13.536Z,5.32
2023-03-31T07:12:42.120Z,3.83
2023-03-31T07:15:11.895Z,7.38
2023-03-31T07:17:42.152Z,7.07
2023-03-31T07:20:13.580Z,5.13
2023-03-31T07:22:43.737Z,4.90
2023-03-31T07:25:14.590Z,3.50
2023-03-31T07:27:43.252Z,6.63
2023-03-31T07:30:13.176Z,6.47
2023-03-31T07:32:41.842Z,5.18
2023-03-31T07:35:12.089Z,3.80
2023-03-31T07:37:42.507Z,2.50
2023-03-31T07:40:15.532Z,3.75
2023-03-31T07:42:46.514Z,4.03
2023-03-31T07:45:17.844Z,7.13
2023-03-31T07:47:47.629Z,5.95
2023-03-31T07:50:17.521Z,4.75
2023-03-31T07:52:47.077Z,8.50
2023-03-31T07:55:17.893Z,4.75
2023-03-31T07:57:47.817Z,6.20
2023-03-31T08:00:17.925Z,6.03
2023-03-31T08:02:46.500Z,4.53
2023-03-31T08:05:16.771Z,3.92
2023-03-31T08:07:47.025Z,3.47
2023-03-31T08:10:18.741Z,3.70
2023-03-31T08:12:47.650Z,3.78
2023-03-31T08:15:16.708Z,6.80
2023-03-31T08:17:45.516Z,6.60
2023-03-31T08:20:14.643Z,5.07
2023-03-31T08:22:43.264Z,5.05
2023-03-31T08:25:12.484Z,8.00
2023-03-31T08:27:42.583Z,4.75
2023-03-31T08:30:12.883Z,6.30
2023-03-31T08:32:41.548Z,4.88
2023-03-31T08:35:10.303Z,6.15
2023-03-31T08:37:40.007Z,8.32
2023-03-31T08:40:11.953Z,9.82
2023-03-31T08:42:45.499Z,4.60
2023-03-31T08:45:20.434Z,5.05
2023-03-31T08:47:52.104Z,10.00
2023-03-31T08:50:24.544Z,6.32
2023-03-31T08:53:01.281Z,8.52
2023-03-31T08:55:34.401Z,7.00
2023-03-31T08:58:08.352Z,4.97
2023-03-31T09:00:42.355Z,5.03
2023-03-31T09:03:19.813Z,5.93
2023-03-31T09:06:00.056Z,6.30
2023-03-31T09:08:36.826Z,5.22
2023-03-31T09:11:14.997Z,4.25
2023-03-31T09:13:58.771Z,5.55
2023-03-31T09:16:33.859Z,6.63
2023-03-31T09:19:03.880Z,4.97
2023-03-31T09:21:34.041Z,8.02
2023-03-31T09:24:08.135Z,4.13
2023-03-31T09:26:40.681Z,5.07
2023-03-31T09:29:19.607Z,3.20
2023-03-31T09:31:48.619Z,6.22
2023-03-31T09:34:18.799Z,3.55
2023-03-31T09:36:47.802Z,3.88
2023-03-31T09:39:16.901Z,6.90
2023-03-31T09:41:46.862Z,4.38
2023-03-31T09:44:25.430Z,4.63
2023-03-31T09:46:55.486Z,4.78
2023-03-31T09:49:25.786Z,10.45
2023-03-31T09:52:03.578Z,6.18
2023-03-31T09:54:37.825Z,4.93
2023-03-31T09:57:16.251Z,9.18
2023-03-31T09:59:52.213Z,5.70
2023-03-31T10:02:36.357Z,7.63
2023-03-31T10:05:06.966Z,4.82
2023-03-31T10:07:36.162Z,4.28
2023-03-31T10:10:05.588Z,5.35
2023-03-31T10:12:34.012Z,3.35
2023-03-31T10:15:20.189Z,6.20
2023-03-31T10:20:24.482Z,9.15
2023-03-31T10:22:53.056Z,4.63
2023-03-31T10:25:23.828Z,6.22
2023-03-31T10:27:55.524Z,6.22
2023-03-31T10:30:28.792Z,5.72
2023-03-31T10:32:59.985Z,5.70
2023-03-31T10:35:34.133Z,6.85
2023-03-31T10:38:06.494Z,7.38
2023-03-31T10:40:37.460Z,6.32
2023-03-31T10:43:12.188Z,6.10
2023-03-31T10:48:20.296Z,5.43
2023-03-31T10:50:49.779Z,7.50
2023-03-31T10:53:19.128Z,5.50
2023-03-31T10:55:56.003Z,6.05
2023-03-31T10:58:36.279Z,5.00
2023-03-31T11:01:15.569Z,8.90
2023-03-31T11:03:57.180Z,5.65
2023-03-31T11:06:29.725Z,5.45
2023-03-31T11:09:08.165Z,7.45
2023-03-31T11:11:57.423Z,4.45
2023-03-31T11:14:34.425Z,6.28
2023-03-31T11:17:10.249Z,5.90
2023-03-31T11:19:46.491Z,7.22
2023-03-31T11:22:18.401Z,6.03
2023-03-31T11:25:09.132Z,6.50
2023-03-31T11:27:59.408Z,7.10
2023-03-31T11:30:30.385Z,8.43
2023-03-31T11:33:07.398Z,6.07
2023-03-31T11:35:47.462Z,5.75
2023-03-31T11:38:30.290Z,8.38
2023-03-31T11:41:02.528Z,5.10
2023-03-31T11:43:35.224Z,4.50
2023-03-31T11:46:06.926Z,5.80
2023-03-31T11:48:43.316Z,5.03
2023-03-31T11:51:16.396Z,5.13
2023-03-31T11:53:45.828Z,5.15
2023-03-31T11:56:14.630Z,4.15
2023-03-31T11:58:46.933Z,8.38
2023-03-31T12:01:20.220Z,11.18
2023-03-31T12:03:56.059Z,9.73
2023-03-31T12:06:28.970Z,6.68
2023-03-31T12:09:06.593Z,4.35
2023-03-31T12:11:40.056Z,8.68
2023-03-31T12:14:17.247Z,5.63
2023-03-31T12:16:47.996Z,7.43
2023-03-31T12:19:22.715Z,8.07
2023-03-31T12:21:54.575Z,5.13
2023-03-31T12:24:23.180Z,8.35
2023-03-31T12:27:03.762Z,8.68
2023-03-31T12:29:34.768Z,5.45
2023-03-31T12:32:06.205Z,3.58
2023-03-31T12:34:47.819Z,4.30
2023-03-31T12:37:31.589Z,6.43
2023-03-31T12:40:11.640Z,7.50
2023-03-31T12:43:04.499Z,3.85
2023-03-31T12:45:37.172Z,7.13
2023-03-31T12:48:38.888Z,6.43
2023-03-31T12:51:19.084Z,8.65
2023-03-31T12:54:00.526Z,7.22
2023-03-31T12:56:29.509Z,8.25
2023-03-31T12:59:23.629Z,4.13
2023-03-31T13:02:29.715Z,8.40
2023-03-31T13:04:58.760Z,8.68
2023-03-31T13:07:41.867Z,6.00
2023-03-31T13:10:31.690Z,5.50
2023-03-31T13:13:04.101Z,7.43
2023-03-31T13:15:33.429Z,6.00
2023-03-31T13:18:03.595Z,5.25
2023-03-31T13:20:37.894Z,5.65
2023-03-31T13:23:16.506Z,6.88
2023-03-31T13:25:47.700Z,7.57
2023-03-31T13:28:19.856Z,5.28
2023-03-31T13:30:58.544Z,5.88
2023-03-31T13:33:38.989Z,8.15
2023-03-31T13:36:43.113Z,5.43
2023-03-31T13:39:40.393Z,7.20
2023-03-31T13:42:33.281Z,8.93
2023-03-31T13:45:21.757Z,9.35
2023-03-31T13:48:09.588Z,5.65
2023-03-31T13:50:43.477Z,6.32
2023-03-31T13:53:31.154Z,8.85
2023-03-31T13:56:13.704Z,11.40
2023-03-31T13:59:10.304Z,7.93
2023-03-31T14:01:52.573Z,10.57
2023-03-31T14:04:48.855Z,10.18
2023-03-31T14:07:19.832Z,8.27
2023-03-31T14:09:50.816Z,8.65
2023-03-31T14:12:24.033Z,6.75
2023-03-31T14:14:58.248Z,8.70
2023-03-31T14:17:29.468Z,10.45
2023-03-31T14:20:21.221Z,9.70
2023-03-31T14:22:57.540Z,11.93
2023-03-31T14:25:41.045Z,9.88
2023-03-31T14:28:22.585Z,7.57
2023-03-31T14:30:59.035Z,10.73
2023-03-31T14:33:35.573Z,10.38
2023-03-31T14:36:10.730Z,12.15
2023-03-31T14:38:39.331Z,12.13
2023-03-31T14:41:08.496Z,10.35
2023-03-31T14:43:42.644Z,13.15
2023-03-31T14:46:11.495Z,12.45
2023-03-31T14:48:45.406Z,11.15
2023-03-31T14:51:19.809Z,9.10
2023-03-31T14:53:52.204Z,13.60
2023-03-31T14:56:23.825Z,11.15
2023-03-31T14:58:55.102Z,10.07
2023-03-31T15:01:29.819Z,13.45
2023-03-31T15:03:58.686Z,13.15
2023-03-31T15:06:27.517Z,13.48
2023-03-31T15:08:58.704Z,11.20
2023-03-31T15:11:29.487Z,6.95
2023-03-31T15:14:05.233Z,12.75
2023-03-31T15:16:42.582Z,9.90
2023-03-31T15:19:17.814Z,15.40
2023-03-31T15:24:15.960Z,12.25
2023-03-31T15:26:48.058Z,14.30
2023-03-31T15:29:21.245Z,11.60
2023-03-31T15:31:50.397Z,9.30
2023-03-31T15:34:24.907Z,13.18
2023-03-31T15:36:57.544Z,14.80
2023-03-31T15:39:26.518Z,10.07
2023-03-31T15:41:56.696Z,5.93
2023-03-31T15:44:39.679Z,12.45
2023-03-31T15:47:14.609Z,13.27
2023-03-31T15:49:50.473Z,17.67
2023-03-31T15:52:30.099Z,10.63
2023-03-31T15:54:59.216Z,13.50
2023-03-31T15:57:34.380Z,9.10
2023-03-31T16:00:07.974Z,11.90
2023-03-31T16:02:46.554Z,10.40
2023-03-31T16:05:29.384Z,14.70
2023-03-31T16:08:00.290Z,9.50
2023-03-31T16:10:30.744Z,7.75
2023-03-31T16:13:00.895Z,10.63
2023-03-31T16:15:37.374Z,10.07
2023-03-31T16:18:08.670Z,9.15
2023-03-31T16:20:40.398Z,12.48
2023-03-31T16:23:15.599Z,15.27
2023-03-31T16:25:44.490Z,12.27
2023-03-31T16:28:16.615Z,9.10
2023-03-31T16:30:47.111Z,9.02
2023-03-31T16:33:17.750Z,9.70
2023-03-31T16:35:49.293Z,11.63
2023-03-31T16:38:18.850Z,9.15
2023-03-31T16:40:48.702Z,10.52
2023-03-31T16:43:18.485Z,13.18
2023-03-31T16:45:50.015Z,12.65
2023-03-31T16:48:20.126Z,11.57
2023-03-31T16:50:49.975Z,8.65
2023-03-31T16:53:22.392Z,12.63
2023-03-31T16:55:51.799Z,13.60
2023-03-31T16:58:20.533Z,16.92
2023-03-31T17:00:50.992Z,11.40
2023-03-31T17:03:20.681Z,12.32
2023-03-31T17:05:53.219Z,13.80
2023-03-31T17:08:28.824Z,4.57
2023-03-31T17:11:03.470Z,8.43
2023-03-31T17:13:32.636Z,16.33
2023-03-31T17:18:51.716Z,9.90
2023-03-31T17:21:20.549Z,12.27
2023-03-31T17:23:49.864Z,14.23
2023-03-31T17:26:19.281Z,11.68
2023-03-31T17:28:47.873Z,8.90
2023-03-31T17:31:19.469Z,16.00
2023-03-31T17:33:48.564Z,13.32
2023-03-31T17:36:17.463Z,12.35
2023-03-31T17:38:46.159Z,11.98
2023-03-31T17:41:18.067Z,18.33
2023-03-31T17:43:47.417Z,13.68
2023-03-31T17:46:17.572Z,13.77
2023-03-31T17:48:46.271Z,12.80
2023-03-31T17:51:18.443Z,10.52
2023-03-31T17:53:48.422Z,15.05
2023-03-31T17:56:17.567Z,13.65
2023-03-31T17:58:46.472Z,11.15
2023-03-31T18:01:19.362Z,14.50
2023-03-31T18:03:48.941Z,11.20
2023-03-31T18:06:17.976Z,11.05
2023-03-31T18:08:46.733Z,9.63
2023-03-31T18:11:15.817Z,12.57
2023-03-31T18:13:44.845Z,11.13
2023-03-31T18:16:13.612Z,11.18
2023-03-31T18:18:44.009Z,9.93
2023-03-31T18:21:13.736Z,11.23
2023-03-31T18:23:42.454Z,11.07
2023-03-31T18:26:12.546Z,13.18
2023-03-31T18:28:41.389Z,13.80
2023-03-31T18:31:10.843Z,18.85
2023-03-31T18:33:40.051Z,15.45
2023-03-31T18:36:11.255Z,16.42
2023-03-31T18:38:39.981Z,14.65
2023-03-31T18:41:08.490Z,15.82
2023-03-31T18:43:37.209Z,19.40
2023-03-31T18:46:05.918Z,13.38
2023-03-31T18:48:35.027Z,15.40
2023-03-31T18:51:05.373Z,16.23
2023-03-31T18:53:35.520Z,16.90
2023-03-31T18:56:04.164Z,14.57
2023-03-31T18:58:33.204Z,14.38
2023-03-31T19:01:02.545Z,14.57
2023-03-31T19:03:31.441Z,13.80
2023-03-31T19:06:10.184Z,15.63
2023-03-31T19:08:41.005Z,15.45
2023-03-31T19:11:10.994Z,15.50
2023-03-31T19:13:40.242Z,15.82
2023-03-31T19:16:08.806Z,14.48
2023-03-31T19:18:37.659Z,19.75
2023-03-31T19:21:06.788Z,17.38
2023-03-31T19:23:35.714Z,15.05
2023-03-31T19:26:05.721Z,17.23
2023-03-31T19:28:34.052Z,17.55
2023-03-31T19:31:04.761Z,17.00
2023-03-31T19:33:33.397Z,18.17
2023-03-31T19:36:02.215Z,13.95
2023-03-31T19:38:32.685Z,15.35
2023-03-31T19:41:01.404Z,15.70
2023-03-31T19:43:31.698Z,15.13
2023-03-31T19:46:00.972Z,16.80
2023-03-31T19:48:33.581Z,17.50
2023-03-31T19:51:04.316Z,18.33
2023-03-31T19:53:33.445Z,17.38
2023-03-31T19:56:04.133Z,14.18
2023-03-31T19:58:36.055Z,13.63
2023-03-31T20:01:06.585Z,15.77
2023-03-31T20:03:35.287Z,17.35
2023-03-31T20:06:07.104Z,12.73
2023-03-31T20:08:35.817Z,14.90
2023-03-31T20:11:06.864Z,13.20
2023-03-31T20:13:37.103Z,11.88
2023-03-31T20:16:08.285Z,13.18
2023-03-31T20:18:38.089Z,14.65
2023-03-31T20:21:08.149Z,12.60
2023-03-31T20:23:38.082Z,12.40
2023-03-31T20:26:09.120Z,12.65
2023-03-31T20:28:40.174Z,14.45
2023-03-31T20:31:09.120Z,11.95
2023-03-31T20:33:37.772Z,14.45
2023-03-31T20:36:07.935Z,11.43
2023-03-31T20:38:38.156Z,12.77
2023-03-31T20:41:07.717Z,10.88
2023-03-31T20:43:36.883Z,12.20
2023-03-31T20:46:08.773Z,13.05
2023-03-31T20:48:38.827Z,11.82
2023-03-31T20:51:07.743Z,10.95
2023-03-31T20:53:42.080Z,12.88
2023-03-31T20:58:41.760Z,11.82
2023-03-31T21:01:16.523Z,13.93
2023-03-31T21:03:45.722Z,13.32
2023-03-31T21:06:16.212Z,16.13
2023-03-31T21:08:46.785Z,11.98
2023-03-31T21:11:15.770Z,15.40
2023-03-31T21:13:46.406Z,16.17
2023-03-31T21:16:17.344Z,15.32
2023-03-31T21:18:45.983Z,16.25
2023-03-31T21:21:15.713Z,13.45
2023-03-31T21:23:44.249Z,16.73
2023-03-31T21:26:15.778Z,16.65
2023-03-31T21:28:45.701Z,15.35
2023-03-31T21:31:18.273Z,17.73
2023-03-31T21:33:48.062Z,16.35
2023-03-31T21:36:17.953Z,14.85
2023-03-31T21:38:46.882Z,17.70
2023-03-31T21:41:17.558Z,12.77
2023-03-31T21:43:46.385Z,13.55
2023-03-31T21:46:18.987Z,15.52
2023-03-31T21:48:48.985Z,18.52
2023-03-31T21:51:20.310Z,13.95
2023-03-31T21:53:48.938Z,14.85
2023-03-31T21:56:17.747Z,14.40
2023-03-31T21:58:46.535Z,14.93
2023-03-31T22:01:15.243Z,16.90
2023-03-31T22:03:48.897Z,15.40
2023-03-31T22:06:17.493Z,17.60
2023-03-31T22:08:46.059Z,19.73
2023-03-31T22:11:15.001Z,15.85
2023-03-31T22:13:43.638Z,19.92
2023-03-31T22:16:18.044Z,15.52
2023-03-31T22:18:50.433Z,20.55
2023-03-31T22:21:20.789Z,17.23
2023-03-31T22:23:49.185Z,16.88
2023-03-31T22:26:18.070Z,16.77
2023-03-31T22:28:46.460Z,15.15
2023-03-31T22:31:15.459Z,14.85
2023-03-31T22:33:43.951Z,18.45
2023-03-31T22:36:14.210Z,14.35
2023-03-31T22:38:45.886Z,14.35
2023-03-31T22:41:14.394Z,13.45
2023-03-31T22:43:46.178Z,16.42
2023-03-31T22:46:16.183Z,17.45
2023-03-31T22:48:44.693Z,13.30
2023-03-31T22:51:14.775Z,15.95
2023-03-31T22:53:43.150Z,14.40
2023-03-31T22:56:13.286Z,14.00
2023-03-31T22:58:41.701Z,17.05
2023-03-31T23:01:15.768Z,13.50
2023-03-31T23:03:45.023Z,16.45
2023-03-31T23:06:15.710Z,14.95
2023-03-31T23:08:45.447Z,15.35
2023-03-31T23:11:14.393Z,14.35
2023-03-31T23:13:43.011Z,14.77
2023-03-31T23:16:15.781Z,14.93
2023-03-31T23:18:47.032Z,13.98
2023-03-31T23:21:20.416Z,16.13
2023-03-31T23:23:50.243Z,14.43
2023-03-31T23:26:20.240Z,10.32
2023-03-31T23:28:49.886Z,14.18
2023-03-31T23:31:18.833Z,14.10
2023-03-31T23:33:48.360Z,15.00
2023-03-31T23:36:21.208Z,15.00
2023-03-31T23:38:51.069Z,13.82
2023-03-31T23:41:20.184Z,17.88
2023-03-31T23:43:48.863Z,15.75
2023-03-31T23:46:17.345Z,15.45
2023-03-31T23:48:45.876Z,14.35
2023-03-31T23:51:14.710Z,14.65
2023-03-31T23:53:44.755Z,13.48
2023-03-31T23:56:14.221Z,15.20
2023-03-31T23:58:45.281Z,15.57
